createdAt,value
2023-03-03T00:00:02.393Z,69.53
2023-03-03T00:02:40.299Z,69.39
2023-03-03T00:05:15.462Z,69.77
2023-03-03T00:07:44.964Z,69.46
2023-03-03T00:10:13.067Z,69.37
2023-03-03T00:12:48.438Z,69.09
2023-03-03T00:15:17.944Z,69.82
2023-03-03T00:17:46.437Z,69.13
2023-03-03T00:20:41.128Z,69.08
2023-03-03T00:23:20.478Z,67.67
2023-03-03T00:25:51.901Z,69.09
2023-03-03T00:28:25.888Z,68.97
2023-03-03T00:30:55.299Z,69.34
2023-03-03T00:33:33.144Z,69.15
2023-03-03T00:36:23.079Z,68.76
2023-03-03T00:38:51.182Z,70.87
2023-03-03T00:41:24.193Z,70.10
2023-03-03T00:43:52.967Z,69.82
2023-03-03T00:46:22.635Z,69.68
2023-03-03T00:48:51.655Z,69.52
2023-03-03T00:51:29.086Z,69.84
2023-03-03T00:53:58.271Z,69.76
2023-03-03T00:56:26.507Z,68.85
2023-03-03T00:58:54.979Z,69.89
2023-03-03T01:01:25.593Z,69.33
2023-03-03T01:03:55.181Z,67.85
2023-03-03T01:06:24.834Z,67.62
2023-03-03T01:08:52.941Z,68.92
2023-03-03T01:11:24.987Z,69.37
2023-03-03T01:13:54.611Z,70.17
2023-03-03T01:16:23.030Z,70.07
2023-03-03T01:18:51.869Z,70.11
2023-03-03T01:21:19.773Z,69.33
2023-03-03T01:23:49.065Z,69.43
2023-03-03T01:26:17.038Z,68.50
2023-03-03T01:28:45.106Z,68.61
2023-03-03T01:31:13.638Z,69.69
2023-03-03T01:33:41.559Z,70.51
2023-03-03T01:36:09.631Z,70.45
2023-03-03T01:38:38.417Z,70.69
2023-03-03T01:41:07.817Z,69.83
2023-03-03T01:43:35.934Z,70.15
2023-03-03T01:46:47.767Z,69.38
2023-03-03T01:49:20.475Z,69.27
2023-03-03T01:51:51.979Z,69.13
2023-03-03T01:54:25.159Z,69.57
2023-03-03T01:56:57.003Z,69.42
2023-03-03T01:59:29.849Z,69.33
2023-03-03T02:01:57.831Z,70.55
2023-03-03T02:04:26.505Z,70.53
2023-03-03T02:06:59.217Z,70.09
2023-03-03T02:09:35.145Z,70.35
2023-03-03T02:12:08.147Z,70.09
2023-03-03T02:14:36.314Z,70.21
2023-03-03T02:17:04.437Z,69.38
2023-03-03T02:19:40.746Z,70.50
2023-03-03T02:22:08.922Z,70.03
2023-03-03T02:24:43.467Z,70.63
2023-03-03T02:27:14.075Z,70.61
2023-03-03T02:29:43.639Z,69.81
2023-03-03T02:32:12.434Z,69.54
2023-03-03T02:34:51.149Z,70.17
2023-03-03T02:37:20.559Z,70.64
2023-03-03T02:39:48.697Z,70.62
2023-03-03T02:42:24.102Z,70.27
2023-03-03T02:44:55.560Z,71.03
2023-03-03T02:47:23.481Z,71.57
2023-03-03T02:49:51.411Z,70.13
2023-03-03T02:52:19.397Z,69.50
2023-03-03T02:54:48.462Z,70.50
2023-03-03T02:57:16.412Z,70.02
2023-03-03T02:59:45.673Z,70.10
2023-03-03T03:02:19.323Z,70.47
2023-03-03T03:04:47.751Z,70.80
2023-03-03T03:07:19.951Z,71.09
2023-03-03T03:09:47.885Z,71.23
2023-03-03T03:12:16.045Z,72.68
2023-03-03T03:14:45.985Z,71.92
2023-03-03T03:17:14.698Z,71.33
2023-03-03T03:19:44.689Z,71.22
2023-03-03T03:22:12.808Z,71.74
2023-03-03T03:24:40.749Z,71.38
2023-03-03T03:27:10.438Z,70.97
2023-03-03T03:29:38.428Z,72.06
2023-03-03T03:32:08.505Z,73.19
2023-03-03T03:34:36.916Z,71.98
2023-03-03T03:37:05.648Z,72.37
2023-03-03T03:39:34.539Z,72.38
2023-03-03T03:42:02.588Z,72.28
2023-03-03T03:44:30.788Z,72.70
2023-03-03T03:46:58.681Z,71.96
2023-03-03T03:49:28.598Z,72.66
2023-03-03T03:51:58.637Z,73.21
2023-03-03T03:54:29.823Z,71.87
2023-03-03T03:56:58.256Z,71.84
2023-03-03T03:59:27.978Z,71.22
2023-03-03T04:01:56.010Z,71.35
2023-03-03T04:04:25.240Z,71.77
2023-03-03T04:06:55.531Z,71.68
2023-03-03T04:09:23.625Z,71.93
2023-03-03T04:11:51.509Z,73.09
2023-03-03T04:14:19.679Z,72.29
2023-03-03T04:16:47.616Z,72.99
2023-03-03T04:19:15.565Z,72.03
2023-03-03T04:21:44.239Z,72.58
2023-03-03T04:24:13.581Z,72.44
2023-03-03T04:26:41.916Z,73.20
2023-03-03T04:29:11.678Z,73.71
2023-03-03T04:31:41.249Z,73.44
2023-03-03T04:34:10.965Z,72.96
2023-03-03T04:36:39.882Z,72.56
2023-03-03T04:39:08.083Z,72.93
2023-03-03T04:41:37.409Z,72.96
2023-03-03T04:44:05.613Z,73.54
2023-03-03T04:46:33.760Z,72.77
2023-03-03T04:49:03.868Z,72.61
2023-03-03T04:51:32.709Z,73.70
2023-03-03T04:54:00.629Z,75.48
2023-03-03T04:56:31.721Z,74.01
2023-03-03T04:59:01.076Z,74.12
2023-03-03T05:01:29.504Z,73.74
2023-03-03T05:03:57.595Z,74.82
2023-03-03T05:06:25.659Z,74.47
2023-03-03T05:08:53.625Z,73.93
2023-03-03T05:11:21.721Z,73.43
2023-03-03T05:13:49.559Z,73.51
2023-03-03T05:16:18.819Z,74.13
2023-03-03T05:18:47.477Z,74.21
2023-03-03T05:21:15.512Z,75.22
2023-03-03T05:23:43.446Z,73.34
2023-03-03T05:26:11.707Z,74.04
2023-03-03T05:28:39.588Z,74.68
2023-03-03T05:31:07.531Z,74.27
2023-03-03T05:33:36.926Z,73.29
2023-03-03T05:36:05.244Z,74.28
2023-03-03T05:38:33.093Z,73.47
2023-03-03T05:41:00.961Z,73.82
2023-03-03T05:43:29.280Z,72.97
2023-03-03T05:45:57.687Z,73.15
2023-03-03T05:48:25.746Z,72.67
2023-03-03T05:50:55.044Z,71.99
2023-03-03T05:53:22.897Z,72.50
2023-03-03T05:55:50.816Z,72.75
2023-03-03T05:58:18.672Z,72.46
2023-03-03T06:00:46.564Z,71.56
2023-03-03T06:03:14.482Z,72.89
2023-03-03T06:05:42.363Z,72.82
2023-03-03T06:08:11.619Z,72.11
2023-03-03T06:10:39.475Z,72.81
2023-03-03T06:13:09.968Z,72.98
2023-03-03T06:15:38.140Z,71.95
2023-03-03T06:18:06.209Z,72.28
2023-03-03T06:20:35.392Z,72.35
2023-03-03T06:23:03.333Z,74.14
2023-03-03T06:25:35.654Z,73.77
2023-03-03T06:28:03.729Z,72.30
2023-03-03T06:30:31.726Z,72.44
2023-03-03T06:32:59.586Z,71.90
2023-03-03T06:35:28.652Z,72.11
2023-03-03T06:37:56.587Z,72.55
2023-03-03T06:40:24.486Z,73.74
2023-03-03T06:42:53.743Z,73.43
2023-03-03T06:45:21.589Z,73.27
2023-03-03T06:47:49.564Z,73.74
2023-03-03T06:50:21.361Z,73.49
2023-03-03T06:52:49.270Z,73.39
2023-03-03T06:55:23.681Z,73.19
2023-03-03T06:57:55.836Z,73.44
2023-03-03T07:00:29.536Z,73.38
2023-03-03T07:03:02.758Z,74.02
2023-03-03T07:05:30.842Z,72.41
2023-03-03T07:07:58.881Z,73.01
2023-03-03T07:10:28.728Z,73.89
2023-03-03T07:13:03.244Z,74.03
2023-03-03T07:15:36.374Z,73.59
2023-03-03T07:18:07.852Z,73.18
2023-03-03T07:20:39.909Z,73.28
2023-03-03T07:23:20.159Z,74.14
2023-03-03T07:25:48.585Z,73.99
2023-03-03T07:28:24.033Z,73.93
2023-03-03T07:30:52.184Z,73.87
2023-03-03T07:33:26.595Z,73.52
2023-03-03T07:35:56.365Z,74.16
2023-03-03T07:38:32.626Z,73.92
2023-03-03T07:41:02.996Z,73.70
2023-03-03T07:43:36.503Z,74.36
2023-03-03T07:46:22.889Z,74.81
2023-03-03T07:48:51.987Z,74.31
2023-03-03T07:51:25.303Z,74.85
2023-03-03T07:53:55.019Z,74.51
2023-03-03T07:56:30.482Z,74.50
2023-03-03T07:58:59.922Z,73.94
2023-03-03T08:01:40.816Z,73.50
2023-03-03T08:04:18.329Z,74.07
2023-03-03T08:06:49.465Z,73.58
2023-03-03T08:09:40.778Z,73.83
2023-03-03T08:12:36.162Z,72.83
2023-03-03T08:15:21.135Z,72.75
2023-03-03T08:17:50.472Z,73.13
2023-03-03T08:20:46.448Z,73.36
2023-03-03T08:23:15.959Z,72.63
2023-03-03T08:25:44.699Z,74.29
2023-03-03T08:28:14.065Z,73.94
2023-03-03T08:30:44.503Z,72.89
2023-03-03T08:33:12.982Z,71.90
2023-03-03T08:35:42.153Z,74.37
2023-03-03T08:38:10.770Z,72.90
2023-03-03T08:40:38.992Z,72.43
2023-03-03T08:43:07.016Z,72.09
2023-03-03T08:45:35.689Z,72.57
2023-03-03T08:48:06.257Z,70.98
2023-03-03T08:50:34.803Z,71.27
2023-03-03T08:53:02.715Z,71.73
2023-03-03T08:55:30.742Z,70.31
2023-03-03T08:57:58.866Z,70.90
2023-03-03T09:00:27.561Z,70.22
2023-03-03T09:02:55.884Z,70.46
2023-03-03T09:05:25.882Z,69.77
2023-03-03T09:07:54.316Z,69.94
2023-03-03T09:10:29.329Z,69.52
2023-03-03T09:13:01.248Z,69.34
2023-03-03T09:15:30.935Z,70.59
2023-03-03T09:18:00.459Z,69.20
2023-03-03T09:20:38.384Z,68.91
2023-03-03T09:23:29.993Z,69.25
2023-03-03T09:25:58.638Z,68.38
2023-03-03T09:28:29.186Z,69.07
2023-03-03T09:31:01.151Z,68.82
2023-03-03T09:33:33.423Z,68.82
2023-03-03T09:36:13.652Z,67.81
2023-03-03T09:38:45.710Z,66.73
2023-03-03T09:41:51.768Z,67.72
2023-03-03T09:44:41.994Z,67.45
2023-03-03T09:47:29.849Z,68.55
2023-03-03T09:50:10.283Z,67.76
2023-03-03T09:52:47.530Z,67.19
2023-03-03T09:55:30.247Z,66.72
2023-03-03T09:58:15.154Z,66.95
2023-03-03T10:00:56.116Z,67.05
2023-03-03T10:03:46.429Z,67.33
2023-03-03T10:06:26.081Z,66.52
2023-03-03T10:09:07.844Z,66.15
2023-03-03T10:11:45.733Z,66.71
2023-03-03T10:14:50.530Z,66.23
2023-03-03T10:17:31.579Z,66.34
2023-03-03T10:20:13.589Z,65.79
2023-03-03T10:22:51.810Z,67.80
2023-03-03T10:25:30.179Z,66.28
2023-03-03T10:28:09.462Z,65.39
2023-03-03T10:31:02.511Z,65.20
2023-03-03T10:33:42.769Z,66.92
2023-03-03T10:36:46.584Z,65.83
2023-03-03T10:39:30.421Z,66.96
2023-03-03T10:42:12.051Z,65.76
2023-03-03T10:44:58.939Z,66.88
2023-03-03T10:47:41.605Z,66.49
2023-03-03T10:50:22.224Z,65.80
2023-03-03T10:52:56.227Z,64.73
2023-03-03T10:55:39.360Z,64.38
2023-03-03T10:58:22.617Z,65.38
2023-03-03T11:00:57.590Z,65.34
2023-03-03T11:03:43.289Z,66.79
2023-03-03T11:06:19.920Z,67.17
2023-03-03T11:08:53.913Z,67.57
2023-03-03T11:11:30.403Z,66.49
2023-03-03T11:14:10.278Z,66.97
2023-03-03T11:16:49.086Z,68.61
2023-03-03T11:19:36.835Z,66.93
2023-03-03T11:22:14.848Z,66.22
2023-03-03T11:24:54.217Z,66.02
2023-03-03T11:27:44.693Z,67.39
2023-03-03T11:30:34.551Z,65.94
2023-03-03T11:33:05.906Z,65.97
2023-03-03T11:35:45.436Z,65.92
2023-03-03T11:38:28.640Z,66.00
2023-03-03T11:41:00.185Z,65.34
2023-03-03T11:43:37.218Z,65.68
2023-03-03T11:46:10.055Z,65.40
2023-03-03T11:48:47.336Z,66.72
2023-03-03T11:51:21.069Z,65.06
2023-03-03T11:53:59.489Z,64.95
2023-03-03T11:56:35.199Z,66.42
2023-03-03T11:59:30.223Z,66.17
2023-03-03T12:02:05.169Z,67.02
2023-03-03T12:04:38.381Z,65.11
2023-03-03T12:07:19.399Z,65.07
2023-03-03T12:09:57.420Z,66.14
2023-03-03T12:12:32.354Z,65.63
2023-03-03T12:15:20.297Z,64.48
2023-03-03T12:18:14.676Z,64.79
2023-03-03T12:20:50.632Z,64.53
2023-03-03T12:23:39.288Z,65.13
2023-03-03T12:26:12.915Z,65.88
2023-03-03T12:28:49.847Z,66.18
2023-03-03T12:31:37.199Z,65.04
2023-03-03T12:34:15.001Z,65.41
2023-03-03T12:37:05.229Z,65.58
2023-03-03T12:39:46.184Z,66.34
2023-03-03T12:42:25.306Z,65.45
2023-03-03T12:45:06.052Z,65.25
2023-03-03T12:47:39.403Z,64.87
2023-03-03T12:50:28.400Z,64.50
2023-03-03T12:53:10.384Z,64.07
2023-03-03T12:55:48.659Z,64.02
2023-03-03T12:58:26.655Z,65.25
2023-03-03T13:01:05.536Z,64.78
2023-03-03T13:03:55.084Z,64.82
2023-03-03T13:06:30.815Z,64.99
2023-03-03T13:09:09.542Z,65.51
2023-03-03T13:11:48.586Z,63.92
2023-03-03T13:14:30.631Z,64.22
2023-03-03T13:17:16.361Z,63.09
2023-03-03T13:19:50.478Z,63.84
2023-03-03T13:22:40.603Z,64.74
2023-03-03T13:25:26.239Z,65.14
2023-03-03T13:28:01.830Z,64.62
2023-03-03T13:30:34.195Z,63.58
2023-03-03T13:33:09.525Z,64.29
2023-03-03T13:35:45.510Z,63.57
2023-03-03T13:38:21.757Z,65.18
2023-03-03T13:40:54.404Z,65.18
2023-03-03T13:43:27.652Z,66.09
2023-03-03T13:45:59.899Z,65.18
2023-03-03T13:48:46.688Z,66.23
2023-03-03T13:51:27.781Z,66.46
2023-03-03T13:54:06.519Z,64.73
2023-03-03T13:56:48.565Z,64.62
2023-03-03T13:59:29.086Z,63.73
2023-03-03T14:02:02.549Z,65.28
2023-03-03T14:04:39.457Z,65.11
2023-03-03T14:07:15.496Z,64.83
2023-03-03T14:10:03.219Z,64.70
2023-03-03T14:12:43.574Z,64.50
2023-03-03T14:15:20.703Z,63.52
2023-03-03T14:18:00.934Z,63.41
2023-03-03T14:20:31.220Z,64.29
2023-03-03T14:23:02.854Z,62.93
2023-03-03T14:25:53.731Z,63.00
2023-03-03T14:28:23.320Z,62.35
2023-03-03T14:30:54.851Z,63.96
2023-03-03T14:33:30.747Z,63.17
2023-03-03T14:36:06.872Z,62.71
2023-03-03T14:38:41.433Z,63.50
2023-03-03T14:41:18.999Z,64.50
2023-03-03T14:43:57.694Z,63.63
2023-03-03T14:46:39.608Z,63.40
2023-03-03T14:49:14.552Z,62.54
2023-03-03T14:51:45.334Z,62.95
2023-03-03T14:54:23.508Z,63.04
2023-03-03T14:57:13.304Z,63.08
2023-03-03T14:59:41.709Z,64.11
2023-03-03T15:02:30.464Z,63.77
2023-03-03T15:05:22.067Z,63.24
2023-03-03T15:07:54.568Z,63.80
2023-03-03T15:10:34.827Z,64.67
2023-03-03T15:13:33.845Z,63.21
2023-03-03T15:16:11.328Z,63.49
2023-03-03T15:19:03.376Z,63.01
2023-03-03T15:21:34.067Z,63.77
2023-03-03T15:24:06.479Z,64.42
2023-03-03T15:26:44.738Z,63.01
2023-03-03T15:29:18.560Z,63.04
2023-03-03T15:31:56.825Z,63.68
2023-03-03T15:34:38.816Z,63.86
2023-03-03T15:37:30.662Z,64.41
2023-03-03T15:40:05.947Z,65.68
2023-03-03T15:42:39.260Z,63.46
2023-03-03T15:45:14.111Z,64.04
2023-03-03T15:48:06.369Z,63.23
2023-03-03T15:50:48.381Z,64.34
2023-03-03T15:53:28.470Z,64.42
2023-03-03T15:56:08.869Z,64.05
2023-03-03T15:59:01.783Z,63.91
2023-03-03T16:01:34.959Z,64.27
2023-03-03T16:04:07.682Z,64.72
2023-03-03T16:06:46.372Z,63.61
2023-03-03T16:09:30.036Z,63.84
2023-03-03T16:12:07.870Z,64.05
2023-03-03T16:14:53.353Z,64.72
2023-03-03T16:17:34.782Z,65.12
2023-03-03T16:20:14.200Z,65.38
2023-03-03T16:23:04.837Z,64.80
2023-03-03T16:25:53.427Z,64.82
2023-03-03T16:28:28.513Z,65.15
2023-03-03T16:31:04.666Z,65.48
2023-03-03T16:33:43.824Z,65.57
2023-03-03T16:36:24.261Z,65.51
2023-03-03T16:38:59.212Z,66.08
2023-03-03T16:41:39.678Z,65.22
2023-03-03T16:44:19.976Z,66.22
2023-03-03T16:46:50.649Z,66.62
2023-03-03T16:49:26.173Z,65.49
2023-03-03T16:52:02.252Z,65.83
2023-03-03T16:54:35.822Z,66.32
2023-03-03T16:57:12.160Z,66.04
2023-03-03T17:00:03.988Z,66.59
2023-03-03T17:03:16.589Z,65.78
2023-03-03T17:05:53.422Z,66.43
2023-03-03T17:08:47.914Z,66.65
2023-03-03T17:11:22.563Z,66.59
2023-03-03T17:14:08.007Z,66.76
2023-03-03T17:16:52.474Z,67.06
2023-03-03T17:19:32.664Z,67.31
2023-03-03T17:22:13.757Z,67.21
2023-03-03T17:24:55.530Z,67.64
2023-03-03T17:27:34.215Z,68.04
2023-03-03T17:30:15.543Z,67.54
2023-03-03T17:33:22.032Z,67.72
2023-03-03T17:36:07.617Z,67.73
2023-03-03T17:38:49.274Z,68.39
2023-03-03T17:41:25.411Z,67.50
2023-03-03T17:44:03.029Z,68.72
2023-03-03T17:46:37.098Z,68.22
2023-03-03T17:49:47.712Z,67.91
2023-03-03T17:52:35.621Z,67.77
2023-03-03T17:55:35.135Z,67.06
2023-03-03T17:58:26.440Z,67.36
2023-03-03T18:01:05.914Z,67.00
2023-03-03T18:04:06.999Z,65.97
2023-03-03T18:07:05.957Z,67.20
2023-03-03T18:09:48.162Z,66.71
2023-03-03T18:12:27.967Z,67.32
2023-03-03T18:15:24.364Z,66.12
2023-03-03T18:18:05.809Z,66.83
2023-03-03T18:21:01.015Z,66.10
2023-03-03T18:23:42.719Z,66.35
2023-03-03T18:26:38.241Z,66.33
2023-03-03T18:29:24.929Z,66.48
2023-03-03T18:32:05.677Z,66.46
2023-03-03T18:34:38.977Z,66.39
2023-03-03T18:37:12.069Z,66.28
2023-03-03T18:39:43.406Z,65.96
2023-03-03T18:42:40.069Z,67.56
2023-03-03T18:45:43.765Z,66.58
2023-03-03T18:48:14.136Z,66.42
2023-03-03T18:50:43.844Z,66.66
2023-03-03T18:53:28.890Z,67.46
2023-03-03T18:55:58.831Z,66.71
2023-03-03T18:58:38.496Z,66.47
2023-03-03T19:01:40.038Z,66.92
2023-03-03T19:04:18.594Z,66.61
2023-03-03T19:07:11.850Z,66.79
2023-03-03T19:09:57.069Z,67.60
2023-03-03T19:12:46.664Z,67.36
2023-03-03T19:15:48.361Z,67.42
2023-03-03T19:18:19.375Z,66.79
2023-03-03T19:20:53.993Z,67.71
2023-03-03T19:23:23.911Z,67.47
2023-03-03T19:26:20.084Z,67.20
2023-03-03T19:28:57.342Z,66.64
2023-03-03T19:31:33.727Z,66.74
2023-03-03T19:34:08.558Z,67.81
2023-03-03T19:37:02.337Z,67.25
2023-03-03T19:39:46.430Z,66.92
2023-03-03T19:42:21.407Z,67.29
2023-03-03T19:45:03.064Z,66.75
2023-03-03T19:47:39.815Z,66.79
2023-03-03T19:50:18.739Z,66.10
2023-03-03T19:52:53.783Z,67.05
2023-03-03T19:55:41.486Z,65.73
2023-03-03T19:58:22.380Z,66.18
2023-03-03T20:00:56.834Z,66.71
2023-03-03T20:03:54.568Z,65.92
2023-03-03T20:06:38.755Z,66.51
2023-03-03T20:09:17.690Z,65.32
2023-03-03T20:12:09.533Z,65.75
2023-03-03T20:14:45.961Z,65.65
2023-03-03T20:17:36.347Z,65.26
2023-03-03T20:20:14.727Z,65.41
2023-03-03T20:22:53.995Z,65.59
2023-03-03T20:25:29.469Z,66.12
2023-03-03T20:28:06.592Z,66.23
2023-03-03T20:30:55.409Z,66.07
2023-03-03T20:33:39.593Z,65.65
2023-03-03T20:36:16.213Z,65.72
2023-03-03T20:38:54.080Z,65.62
2023-03-03T20:41:37.108Z,64.81
2023-03-03T20:44:18.358Z,64.80
2023-03-03T20:46:55.517Z,66.04
2023-03-03T20:49:39.154Z,65.68
2023-03-03T20:52:13.120Z,65.52
2023-03-03T20:54:47.058Z,65.40
2023-03-03T20:57:22.947Z,65.71
2023-03-03T21:00:00.509Z,65.76
2023-03-03T21:02:37.833Z,65.27
2023-03-03T21:05:15.567Z,64.47
2023-03-03T21:07:53.501Z,65.69
2023-03-03T21:10:25.196Z,65.10
2023-03-03T21:12:56.104Z,64.56
2023-03-03T21:15:27.868Z,65.28
2023-03-03T21:17:57.641Z,64.26
2023-03-03T21:20:29.466Z,64.62
2023-03-03T21:22:58.411Z,65.21
2023-03-03T21:25:52.110Z,65.30
2023-03-03T21:28:25.772Z,65.11
2023-03-03T21:31:12.311Z,65.59
2023-03-03T21:33:46.263Z,64.64
2023-03-03T21:36:15.780Z,64.34
2023-03-03T21:38:43.745Z,64.05
2023-03-03T21:41:12.689Z,64.35
2023-03-03T21:43:44.543Z,65.19
2023-03-03T21:46:13.416Z,64.32
2023-03-03T21:48:42.752Z,64.29
2023-03-03T21:51:13.928Z,64.03
2023-03-03T21:53:42.858Z,64.64
2023-03-03T21:56:10.987Z,63.89
2023-03-03T21:58:38.923Z,63.83
2023-03-03T22:01:08.677Z,64.74
2023-03-03T22:03:39.035Z,64.65
2023-03-03T22:06:07.802Z,63.63
2023-03-03T22:08:35.851Z,63.98
2023-03-03T22:11:03.760Z,64.25
2023-03-03T22:13:31.625Z,64.56
2023-03-03T22:15:59.534Z,65.21
2023-03-03T22:18:29.067Z,64.22
2023-03-03T22:20:56.938Z,63.72
2023-03-03T22:23:24.835Z,64.61
2023-03-03T22:25:52.838Z,64.46
2023-03-03T22:28:20.724Z,64.23
2023-03-03T22:30:48.845Z,63.56
2023-03-03T22:33:16.817Z,63.90
2023-03-03T22:35:46.128Z,64.24
2023-03-03T22:38:14.059Z,64.44
2023-03-03T22:40:42.033Z,65.52
2023-03-03T22:43:11.140Z,65.36
2023-03-03T22:45:39.076Z,64.92
2023-03-03T22:48:07.745Z,66.70
2023-03-03T22:50:39.434Z,65.35
2023-03-03T22:53:08.837Z,65.63
2023-03-03T22:55:37.211Z,65.20
2023-03-03T22:58:07.492Z,65.29
2023-03-03T23:00:38.340Z,65.82
2023-03-03T23:03:06.608Z,65.23
2023-03-03T23:05:35.803Z,65.70
2023-03-03T23:08:04.300Z,66.53
2023-03-03T23:10:33.692Z,66.82
2023-03-03T23:13:01.929Z,67.12
2023-03-03T23:15:29.959Z,68.20
2023-03-03T23:17:57.882Z,68.64
2023-03-03T23:20:27.916Z,68.23
2023-03-03T23:22:56.617Z,69.02
2023-03-03T23:25:25.598Z,69.25
2023-03-03T23:27:55.153Z,69.71
2023-03-03T23:30:24.106Z,69.47
2023-03-03T23:32:52.091Z,70.39
2023-03-03T23:35:20.215Z,69.75
2023-03-03T23:37:48.395Z,69.34
2023-03-03T23:40:17.307Z,70.29
2023-03-03T23:42:45.919Z,70.33
2023-03-03T23:45:15.228Z,69.87
2023-03-03T23:47:43.136Z,70.80
2023-03-03T23:50:12.899Z,71.05
2023-03-03T23:52:41.196Z,70.38
2023-03-03T23:55:10.014Z,70.40
2023-03-03T23:57:37.969Z,70.43
